Time;durP1;ratioP1;P1;durP2;ratioP2;P2;SDS_P1;SDS_P2;PMS_P1;PMS_P2;Temp;Humidity;BMP_temperature;BMP_pressure;BME280_temperature;BME280_humidity;BME280_pressure;Samples;Min_cycle;Max_cycle;Signal;HPM_P1;HPM_P2
2024/01/08 00:02:02;;;;;;;;;;;;;;;;;;5136469;28;19963;-42
2024/01/08 00:04:28;;;;;;;;;;;;;;;;;;5136235;28;19978;-41
2024/01/08 00:06:54;;;;;;;;;;;;;;;;;;5136406;28;19923;-41
2024/01/08 00:09:20;;;;;;;;;;;;;;;;;;5136204;28;19934;-41
2024/01/08 00:11:46;;;;;;;;;;;;;;;;;;5136094;28;19927;-42
2024/01/08 00:14:11;;;;;;;;;;;;;;;;;;5136096;28;20018;-41
2024/01/08 00:16:37;;;;;;;;;;;;;;;;;;5135908;28;19975;-41
2024/01/08 00:19:02;;;;;;;;;;;;;;;;;;5135526;28;20026;-42
2024/01/08 00:21:28;;;;;;;;;;;;;;;;;;5135926;28;20426;-39
2024/01/08 00:23:54;;;;;;;;;;;;;;;;;;5135381;28;19923;-41
2024/01/08 00:26:20;;;;;;;;;;;;;;;;;;5135110;28;19923;-45
2024/01/08 00:28:45;;;;;;;;;;;;;;;;;;5135963;28;20574;-41
2024/01/08 00:31:11;;;;;;;;;;;;;;;;;;5135787;28;20010;-43
2024/01/08 00:33:36;;;;;;;;;;;;;;;;;;5135968;28;19962;-40
2024/01/08 00:36:02;;;;;;;;;;;;;;;;;;5135539;28;19923;-41
2024/01/08 00:38:27;;;;;;;;;;;;;;;;;;5134482;27;19958;-40
2024/01/08 00:40:53;;;;;;;;;;;;;;;;;;5135490;28;20018;-40
2024/01/08 00:43:18;;;;;;;;;;;;;;;;;;5135266;28;20024;-40
2024/01/08 00:45:43;;;;;;;;;;;;;;;;;;5134836;28;20014;-41
2024/01/08 00:48:09;;;;;;;;;;;;;;;;;;5135789;28;20421;-42
2024/01/08 00:50:34;;;;;;;;;;;;;;;;;;5135604;28;20023;-40
2024/01/08 00:53:00;;;;;;;;;;;;;;;;;;5135018;28;20446;-40
2024/01/08 00:55:25;;;;;;;;;;;;;;;;;;5134607;28;20006;-42
2024/01/08 00:57:51;;;;;;;;;;;;;;;;;;5134926;28;20349;-41
2024/01/08 01:00:16;;;;;;;;;;;;;;;;;;5134843;28;20011;-41
2024/01/08 01:02:42;;;;;;;;;;;;;;;;;;5134869;28;19959;-41
2024/01/08 01:05:07;;;;;;;;;;;;;;;;;;5134663;28;19930;-39
2024/01/08 01:07:33;;;;;;;;;;;;;;;;;;5134890;28;20014;-41
2024/01/08 01:09:58;;;;;;;;;;;;;;;;;;5134710;28;19923;-43
2024/01/08 01:12:24;;;;;;;;;;;;;;;;;;5134832;28;20070;-42
2024/01/08 01:14:49;;;;;;;;;;;;;;;;;;5134903;28;20055;-41
2024/01/08 01:17:15;;;;;;;;;;;;;;;;;;5134516;28;19958;-43
2024/01/08 01:19:41;;;;;;;;;;;;;;;;;;5135195;28;20347;-40
2024/01/08 01:22:06;;;;;;;;;;;;;;;;;;5135174;28;19997;-42
2024/01/08 01:24:31;;;;;;;;;;;;;;;;;;5134399;28;19967;-42
2024/01/08 01:26:57;;;;;;;;;;;;;;;;;;5134378;28;20006;-39
2024/01/08 01:29:22;;;;;;;;;;;;;;;;;;5134897;28;20334;-42
2024/01/08 01:31:48;;;;;;;;;;;;;;;;;;5135033;28;20040;-41
2024/01/08 01:34:13;;;;;;;;;;;;;;;;;;5135043;28;19935;-40
2024/01/08 01:36:39;;;;;;;;;;;;;;;;;;5134483;27;19923;-42
2024/01/08 01:39:05;;;;;;;;;;;;;;;;;;5134774;27;19931;-40
2024/01/08 01:41:30;;;;;;;;;;;;;;;;;;5134591;28;19975;-40
2024/01/08 01:43:56;;;;;;;;;;;;;;;;;;5134644;28;19954;-40
2024/01/08 01:46:21;;;;;;;;;;;;;;;;;;5134583;28;19967;-41
2024/01/08 01:48:47;;;;;;;;;;;;;;;;;;5134318;27;19959;-39
2024/01/08 01:51:12;;;;;;;;;;;;;;;;;;5134749;28;20018;-41
2024/01/08 01:53:37;;;;;;;;;;;;;;;;;;5134749;28;19923;-41
2024/01/08 01:56:03;;;;;;;;;;;;;;;;;;5134105;28;20017;-41
2024/01/08 01:58:29;;;;;;;;;;;;;;;;;;5134586;28;19967;-43
2024/01/08 02:00:55;;;;;;;;;;;;;;;;;;5134467;28;19931;-42
2024/01/08 02:03:20;;;;;;;;;;;;;;;;;;5134255;28;19970;-40
2024/01/08 02:05:46;;;;;;;;;;;;;;;;;;5134412;28;19970;-42
2024/01/08 02:08:11;;;;;;;;;;;;;;;;;;5134018;28;19924;-44
2024/01/08 02:10:40;;;;;;;;;;;;;;;;;;5134048;28;19963;-41
2024/01/08 02:13:05;;;;;;;;;;;;;;;;;;5134355;28;19924;-41
2024/01/08 02:15:30;;;;;;;;;;;;;;;;;;5133873;28;20010;-40
2024/01/08 02:17:56;;;;;;;;;;;;;;;;;;5134366;28;20010;-42
2024/01/08 02:20:21;;;;;;;;;;;;;;;;;;5134233;28;19927;-40
2024/01/08 02:22:47;;;;;;;;;;;;;;;;;;5134260;28;20052;-41
2024/01/08 02:25:13;;;;;;;;;;;;;;;;;;5133689;28;20390;-42
2024/01/08 02:27:38;;;;;;;;;;;;;;;;;;5133602;28;19931;-41
2024/01/08 02:30:04;;;;;;;;;;;;;;;;;;5133404;28;20007;-40
2024/01/08 02:32:29;;;;;;;;;;;;;;;;;;5133927;28;20290;-40
2024/01/08 02:34:55;;;;;;;;;;;;;;;;;;5133830;28;19962;-40
2024/01/08 02:37:21;;;;;;;;;;;;;;;;;;5133729;28;20006;-42
2024/01/08 02:39:46;;;;;;;;;;;;;;;;;;5133512;28;19927;-41
2024/01/08 02:42:13;;;;;;;;;;;;;;;;;;5133991;28;19930;-41
2024/01/08 02:44:39;;;;;;;;;;;;;;;;;;5133884;28;19924;-40
2024/01/08 02:47:04;;;;;;;;;;;;;;;;;;5133399;28;19957;-43
2024/01/08 02:49:30;;;;;;;;;;;;;;;;;;5133915;28;19992;-42
2024/01/08 02:51:55;;;;;;;;;;;;;;;;;;5133806;28;19963;-41
2024/01/08 02:54:20;;;;;;;;;;;;;;;;;;5133822;28;19930;-42
2024/01/08 02:56:46;;;;;;;;;;;;;;;;;;5133061;28;19958;-44
2024/01/08 02:59:11;;;;;;;;;;;;;;;;;;5133340;28;20010;-43
2024/01/08 03:01:38;;;;;;;;;;;;;;;;;;5131871;27;19966;-40
2024/01/08 03:04:04;;;;;;;;;;;;;;;;;;5132973;28;19928;-40
2024/01/08 03:06:29;;;;;;;;;;;;;;;;;;5133120;28;20006;-42
2024/01/08 03:08:55;;;;;;;;;;;;;;;;;;5132705;28;19924;-40
2024/01/08 03:11:21;;;;;;;;;;;;;;;;;;5132699;28;19928;-41
2024/01/08 03:13:46;;;;;;;;;;;;;;;;;;5133337;28;19934;-41
2024/01/08 03:16:12;;;;;;;;;;;;;;;;;;5132688;28;20014;-43
2024/01/08 03:18:37;;;;;;;;;;;;;;;;;;5133392;28;19945;-40
2024/01/08 03:21:05;;;;;;;;;;;;;;;;;;5133222;28;20013;-39
2024/01/08 03:23:30;;;;;;;;;;;;;;;;;;5133334;28;19974;-42
2024/01/08 03:25:56;;;;;;;;;;;;;;;;;;5132885;28;20060;-40
2024/01/08 03:28:22;;;;;;;;;;;;;;;;;;5132287;28;19966;-40
2024/01/08 03:30:47;;;;;;;;;;;;;;;;;;5132228;28;19971;-40
2024/01/08 03:33:12;;;;;;;;;;;;;;;;;;5133001;28;20443;-44
2024/01/08 03:35:38;;;;;;;;;;;;;;;;;;5132714;28;19931;-42
2024/01/08 03:38:03;;;;;;;;;;;;;;;;;;5132738;28;20355;-41
2024/01/08 03:40:29;;;;;;;;;;;;;;;;;;5132832;28;19970;-43
2024/01/08 03:42:54;;;;;;;;;;;;;;;;;;5132881;28;20014;-41
2024/01/08 03:45:20;;;;;;;;;;;;;;;;;;5132095;28;20390;-41
2024/01/08 03:47:45;;;;;;;;;;;;;;;;;;5132507;28;20325;-43
2024/01/08 03:50:11;;;;;;;;;;;;;;;;;;5132497;28;19962;-41
2024/01/08 03:52:36;;;;;;;;;;;;;;;;;;5132463;28;20022;-40
2024/01/08 03:55:02;;;;;;;;;;;;;;;;;;5132209;28;19923;-40
2024/01/08 03:57:27;;;;;;;;;;;;;;;;;;5132510;28;19932;-40
2024/01/08 03:59:52;;;;;;;;;;;;;;;;;;5131932;28;19923;-41
2024/01/08 04:02:18;;;;;;;;;;;;;;;;;;5132613;28;19954;-41
2024/01/08 04:04:43;;;;;;;;;;;;;;;;;;5132973;28;20046;-42
2024/01/08 04:07:09;;;;;;;;;;;;;;;;;;5132476;28;19981;-40
2024/01/08 04:09:34;;;;;;;;;;;;;;;;;;5132421;28;19923;-41
2024/01/08 04:12:00;;;;;;;;;;;;;;;;;;5133850;27;19928;-40
2024/01/08 04:14:25;;;;;;;;;;;;;;;;;;5136111;28;19929;-40
2024/01/08 04:16:51;;;;;;;;;;;;;;;;;;5135723;28;20381;-41
2024/01/08 04:19:16;;;;;;;;;;;;;;;;;;5135885;28;19981;-40
2024/01/08 04:21:41;;;;;;;;;;;;;;;;;;5135949;28;19972;-40
2024/01/08 04:24:07;;;;;;;;;;;;;;;;;;5136136;28;20359;-40
2024/01/08 04:26:32;;;;;;;;;;;;;;;;;;5135804;28;19969;-41
2024/01/08 04:28:58;;;;;;;;;;;;;;;;;;5135463;28;20462;-40
2024/01/08 04:31:23;;;;;;;;;;;;;;;;;;5134618;28;19927;-40
2024/01/08 04:33:52;;;;;;;;;;;;;;;;;;5134841;28;19998;-41
2024/01/08 04:36:17;;;;;;;;;;;;;;;;;;5135054;27;19934;-41
2024/01/08 04:38:46;;;;;;;;;;;;;;;;;;5135295;28;19923;-42
2024/01/08 04:41:11;;;;;;;;;;;;;;;;;;5134956;27;19930;-41
2024/01/08 04:43:37;;;;;;;;;;;;;;;;;;5135354;28;19958;-40
2024/01/08 04:46:03;;;;;;;;;;;;;;;;;;5134939;28;20014;-41
2024/01/08 04:48:28;;;;;;;;;;;;;;;;;;5135200;27;19932;-42
2024/01/08 04:50:54;;;;;;;;;;;;;;;;;;5135313;28;20018;-40
2024/01/08 04:53:19;;;;;;;;;;;;;;;;;;5135363;28;19977;-40
2024/01/08 04:55:45;;;;;;;;;;;;;;;;;;5134872;28;20402;-41
2024/01/08 04:58:10;;;;;;;;;;;;;;;;;;5135449;28;19927;-41
2024/01/08 05:00:36;;;;;;;;;;;;;;;;;;5134861;28;19931;-40
2024/01/08 05:03:01;;;;;;;;;;;;;;;;;;5135309;28;20014;-39
2024/01/08 05:05:27;;;;;;;;;;;;;;;;;;5135044;28;20005;-41
2024/01/08 05:07:52;;;;;;;;;;;;;;;;;;5135254;28;20386;-40
2024/01/08 05:10:18;;;;;;;;;;;;;;;;;;5135129;28;20030;-42
2024/01/08 05:12:43;;;;;;;;;;;;;;;;;;5134491;28;19927;-40
2024/01/08 05:15:09;;;;;;;;;;;;;;;;;;5134162;28;20287;-42
2024/01/08 05:17:34;;;;;;;;;;;;;;;;;;5134425;28;19923;-40
2024/01/08 05:20:00;;;;;;;;;;;;;;;;;;5134465;28;20351;-41
2024/01/08 05:22:25;;;;;;;;;;;;;;;;;;5134499;28;19928;-40
2024/01/08 05:24:51;;;;;;;;;;;;;;;;;;5133579;27;20359;-39
2024/01/08 05:27:16;;;;;;;;;;;;;;;;;;5134101;28;19995;-41
2024/01/08 05:29:42;;;;;;;;;;;;;;;;;;5134489;28;19923;-43
2024/01/08 05:32:07;;;;;;;;;;;;;;;;;;5133594;28;19931;-40
2024/01/08 05:34:33;;;;;;;;;;;;;;;;;;5133839;28;20363;-41
2024/01/08 05:36:59;;;;;;;;;;;;;;;;;;5134014;28;20165;-39
2024/01/08 05:39:24;;;;;;;;;;;;;;;;;;5134128;28;19934;-39
2024/01/08 05:41:49;;;;;;;;;;;;;;;;;;5134109;28;19927;-43
2024/01/08 05:44:15;;;;;;;;;;;;;;;;;;5134514;28;19923;-40
2024/01/08 05:46:40;;;;;;;;;;;;;;;;;;5126786;28;19937;-40
2024/01/08 05:49:06;;;;;;;;;;;;;;;;;;5130834;28;20022;-40
2024/01/08 05:51:31;;;;;;;;;;;;;;;;;;5133173;28;20022;-40
2024/01/08 05:53:57;;;;;;;;;;;;;;;;;;5132719;28;20022;-39
2024/01/08 05:56:23;;;;;;;;;;;;;;;;;;5133788;28;20394;-39
2024/01/08 05:58:48;;;;;;;;;;;;;;;;;;5134185;28;19959;-44
2024/01/08 06:01:13;;;;;;;;;;;;;;;;;;5131921;28;19988;-43
2024/01/08 06:03:39;;;;;;;;;;;;;;;;;;5129319;28;20025;-41
2024/01/08 06:06:04;;;;;;;;;;;;;;;;;;5132443;28;20018;-40
2024/01/08 06:08:31;;;;;;;;;;;;;;;;;;5132820;28;20115;-41
2024/01/08 06:10:57;;;;;;;;;;;;;;;;;;5132082;28;19931;-41
2024/01/08 06:13:22;;;;;;;;;;;;;;;;;;5132450;28;20042;-41
2024/01/08 06:15:47;;;;;;;;;;;;;;;;;;5132192;28;19973;-39
2024/01/08 06:18:14;;;;;;;;;;;;;;;;;;5133383;27;20010;-41
2024/01/08 06:20:39;;;;;;;;;;;;;;;;;;5123219;28;20445;-39
2024/01/08 06:23:05;;;;;;;;;;;;;;;;;;5131883;28;19923;-39
2024/01/08 06:25:30;;;;;;;;;;;;;;;;;;5128012;28;19930;-41
2024/01/08 06:27:56;;;;;;;;;;;;;;;;;;5130053;28;19968;-41
2024/01/08 06:30:21;;;;;;;;;;;;;;;;;;5129085;28;20052;-40
2024/01/08 06:32:47;;;;;;;;;;;;;;;;;;5131522;28;20035;-40
2024/01/08 06:35:12;;;;;;;;;;;;;;;;;;5131011;27;20057;-40
2024/01/08 06:37:38;;;;;;;;;;;;;;;;;;5132338;28;19931;-41
2024/01/08 06:40:03;;;;;;;;;;;;;;;;;;5130819;28;19927;-42
2024/01/08 06:42:29;;;;;;;;;;;;;;;;;;5128656;28;20026;-39
2024/01/08 06:45:03;;;;;;;;;;;;;;;;;;5131405;28;20019;-40
2024/01/08 06:47:29;;;;;;;;;;;;;;;;;;5130461;27;19927;-39
2024/01/08 06:49:54;;;;;;;;;;;;;;;;;;5132232;27;19973;-39
2024/01/08 06:52:20;;;;;;;;;;;;;;;;;;5126205;28;19976;-41
2024/01/08 06:54:45;;;;;;;;;;;;;;;;;;5123696;28;19962;-46
2024/01/08 06:57:11;;;;;;;;;;;;;;;;;;5120557;28;19981;-42
2024/01/08 06:59:36;;;;;;;;;;;;;;;;;;5121037;28;20010;-40
2024/01/08 07:02:02;;;;;;;;;;;;;;;;;;5118891;28;19923;-44
2024/01/08 07:04:28;;;;;;;;;;;;;;;;;;5118513;27;19935;-43
2024/01/08 07:06:54;;;;;;;;;;;;;;;;;;5124627;28;20251;-41
2024/01/08 07:09:19;;;;;;;;;;;;;;;;;;5120935;28;19946;-41
2024/01/08 07:11:44;;;;;;;;;;;;;;;;;;5119053;27;20423;-40
2024/01/08 07:14:10;;;;;;;;;;;;;;;;;;5122193;28;20072;-40
2024/01/08 07:16:36;;;;;;;;;;;;;;;;;;5122525;28;19927;-40
2024/01/08 07:19:01;;;;;;;;;;;;;;;;;;5120200;28;20338;-39
2024/01/08 07:21:27;;;;;;;;;;;;;;;;;;5123370;27;19938;-41
2024/01/08 07:23:53;;;;;;;;;;;;;;;;;;5118030;27;20334;-43
2024/01/08 07:26:18;;;;;;;;;;;;;;;;;;5122119;28;20048;-41
2024/01/08 07:28:44;;;;;;;;;;;;;;;;;;5120116;27;19953;-40
2024/01/08 07:31:11;;;;;;;;;;;;;;;;;;5119737;28;20050;-40
2024/01/08 07:33:36;;;;;;;;;;;;;;;;;;5117117;27;19975;-41
2024/01/08 07:36:02;;;;;;;;;;;;;;;;;;5122718;28;19980;-43
2024/01/08 07:38:27;;;;;;;;;;;;;;;;;;5125188;28;20010;-42
2024/01/08 07:40:53;;;;;;;;;;;;;;;;;;5119153;27;19924;-40
2024/01/08 07:43:19;;;;;;;;;;;;;;;;;;5115068;27;20798;-40
2024/01/08 07:45:44;;;;;;;;;;;;;;;;;;5120345;27;20014;-41
2024/01/08 07:48:10;;;;;;;;;;;;;;;;;;5123412;28;19938;-41
2024/01/08 07:50:35;;;;;;;;;;;;;;;;;;5118897;28;19941;-42
2024/01/08 07:53:01;;;;;;;;;;;;;;;;;;5119914;27;20506;-39
2024/01/08 07:55:26;;;;;;;;;;;;;;;;;;5121320;27;19931;-41
2024/01/08 07:57:52;;;;;;;;;;;;;;;;;;5116264;28;19963;-42
2024/01/08 08:00:19;;;;;;;;;;;;;;;;;;5117203;27;20072;-39
2024/01/08 08:02:45;;;;;;;;;;;;;;;;;;5115039;27;19980;-41
2024/01/08 08:05:10;;;;;;;;;;;;;;;;;;5112765;27;19935;-40
2024/01/08 08:07:36;;;;;;;;;;;;;;;;;;5116294;27;19923;-41
2024/01/08 08:10:02;;;;;;;;;;;;;;;;;;5120902;27;19935;-41
2024/01/08 08:12:27;;;;;;;;;;;;;;;;;;5122417;27;20015;-40
2024/01/08 08:14:53;;;;;;;;;;;;;;;;;;5116560;28;20342;-40
2024/01/08 08:17:19;;;;;;;;;;;;;;;;;;5123088;28;19966;-41
2024/01/08 08:19:45;;;;;;;;;;;;;;;;;;5123559;27;19954;-39
2024/01/08 08:22:11;;;;;;;;;;;;;;;;;;5122745;28;20421;-41
2024/01/08 08:24:36;;;;;;;;;;;;;;;;;;5122549;28;19976;-40
2024/01/08 08:27:02;;;;;;;;;;;;;;;;;;5121109;28;19965;-40
2024/01/08 08:29:27;;;;;;;;;;;;;;;;;;5120781;27;19927;-43
2024/01/08 08:31:55;;;;;;;;;;;;;;;;;;5110373;28;19927;-42
2024/01/08 08:34:20;;;;;;;;;;;;;;;;;;5108363;27;19928;-42
2024/01/08 08:36:46;;;;;;;;;;;;;;;;;;5111591;27;20026;-43
2024/01/08 08:39:15;;;;;;;;;;;;;;;;;;5108976;28;20658;-39
2024/01/08 08:41:40;;;;;;;;;;;;;;;;;;5109908;27;19938;-41
2024/01/08 08:44:06;;;;;;;;;;;;;;;;;;5113276;28;19927;-42
2024/01/08 08:46:32;;;;;;;;;;;;;;;;;;5113408;28;20845;-41
2024/01/08 08:48:57;;;;;;;;;;;;;;;;;;5113155;27;19931;-39
2024/01/08 08:51:23;;;;;;;;;;;;;;;;;;5110412;27;19927;-43
2024/01/08 08:53:48;;;;;;;;;;;;;;;;;;5107992;28;20002;-41
2024/01/08 08:56:14;;;;;;;;;;;;;;;;;;5111921;27;19931;-39
2024/01/08 08:58:40;;;;;;;;;;;;;;;;;;5111575;27;20006;-41
2024/01/08 09:01:05;;;;;;;;;;;;;;;;;;5111719;28;20065;-42
2024/01/08 09:03:31;;;;;;;;;;;;;;;;;;5111637;27;19931;-39
2024/01/08 09:05:56;;;;;;;;;;;;;;;;;;5113348;28;19930;-40
2024/01/08 09:08:25;;;;;;;;;;;;;;;;;;5119478;27;19927;-42
2024/01/08 09:10:51;;;;;;;;;;;;;;;;;;5113364;27;20554;-38
2024/01/08 09:13:16;;;;;;;;;;;;;;;;;;5119101;28;19930;-41
2024/01/08 09:15:42;;;;;;;;;;;;;;;;;;5124980;28;20414;-41
2024/01/08 09:18:07;;;;;;;;;;;;;;;;;;5120794;28;19932;-42
2024/01/08 09:20:33;;;;;;;;;;;;;;;;;;5120358;27;20537;-43
2024/01/08 09:22:59;;;;;;;;;;;;;;;;;;5122555;27;19927;-39
2024/01/08 09:25:24;;;;;;;;;;;;;;;;;;5115374;28;20268;-40
2024/01/08 09:27:49;;;;;;;;;;;;;;;;;;5116017;28;20014;-43
2024/01/08 09:30:15;;;;;;;;;;;;;;;;;;5118310;28;19928;-40
2024/01/08 09:32:44;;;;;;;;;;;;;;;;;;5116618;28;19970;-56
2024/01/08 09:35:10;;;;;;;;;;;;;;;;;;5115318;28;19923;-41
2024/01/08 09:37:35;;;;;;;;;;;;;;;;;;5116472;27;24112;-41
2024/01/08 09:40:01;;;;;;;;;;;;;;;;;;5118215;28;19970;-40
2024/01/08 09:42:28;;;;;;;;;;;;;;;;;;5121968;27;20314;-41
2024/01/08 09:44:54;;;;;;;;;;;;;;;;;;5121448;28;19931;-41
2024/01/08 09:47:20;;;;;;;;;;;;;;;;;;5125308;28;19930;-40
2024/01/08 09:49:45;;;;;;;;;;;;;;;;;;5117109;27;19935;-41
2024/01/08 09:52:11;;;;;;;;;;;;;;;;;;5120040;27;19924;-42
2024/01/08 09:54:36;;;;;;;;;;;;;;;;;;5120514;27;19927;-42
2024/01/08 09:57:03;;;;;;;;;;;;;;;;;;5118890;27;20418;-43
2024/01/08 09:59:29;;;;;;;;;;;;;;;;;;5116946;27;19931;-45
2024/01/08 10:01:56;;;;;;;;;;;;;;;;;;5122331;27;20018;-41
2024/01/08 10:04:21;;;;;;;;;;;;;;;;;;5120670;27;19931;-43
2024/01/08 10:06:47;;;;;;;;;;;;;;;;;;5126256;27;20327;-43
2024/01/08 10:09:12;;;;;;;;;;;;;;;;;;5119825;27;19946;-41
2024/01/08 10:11:38;;;;;;;;;;;;;;;;;;5119472;27;19927;-43
2024/01/08 10:14:03;;;;;;;;;;;;;;;;;;5124589;28;19946;-41
2024/01/08 10:16:29;;;;;;;;;;;;;;;;;;5116442;28;19931;-42
2024/01/08 10:19:09;;;;;;;;;;;;;;;;;;5123025;27;20150;-42
2024/01/08 10:21:35;;;;;;;;;;;;;;;;;;5119410;27;20022;-41
2024/01/08 10:24:00;;;;;;;;;;;;;;;;;;5124685;27;20019;-42
2024/01/08 10:26:28;;;;;;;;;;;;;;;;;;5121231;27;20485;-41
2024/01/08 10:28:54;;;;;;;;;;;;;;;;;;5121946;28;19923;-43
2024/01/08 10:31:19;;;;;;;;;;;;;;;;;;5119600;28;19927;-43
2024/01/08 10:33:45;;;;;;;;;;;;;;;;;;5119389;28;20264;-45
2024/01/08 10:36:11;;;;;;;;;;;;;;;;;;5121687;27;20030;-42
2024/01/08 10:38:36;;;;;;;;;;;;;;;;;;5117680;28;19927;-41
2024/01/08 10:41:03;;;;;;;;;;;;;;;;;;5117518;27;20428;-43
2024/01/08 10:43:29;;;;;;;;;;;;;;;;;;5117770;27;20022;-41
2024/01/08 10:45:55;;;;;;;;;;;;;;;;;;5112137;28;20372;-43
2024/01/08 10:48:20;;;;;;;;;;;;;;;;;;5119477;27;19980;-49
2024/01/08 10:50:46;;;;;;;;;;;;;;;;;;5114350;28;19932;-42
2024/01/08 10:53:11;;;;;;;;;;;;;;;;;;5117212;27;20185;-41
2024/01/08 10:55:37;;;;;;;;;;;;;;;;;;5119480;28;19924;-46
2024/01/08 10:58:02;;;;;;;;;;;;;;;;;;5121285;27;19931;-44
2024/01/08 11:00:28;;;;;;;;;;;;;;;;;;5117712;27;20035;-41
2024/01/08 11:02:53;;;;;;;;;;;;;;;;;;5119698;27;20010;-44
2024/01/08 11:05:20;;;;;;;;;;;;;;;;;;5117593;27;19927;-42
2024/01/08 11:07:46;;;;;;;;;;;;;;;;;;5116752;27;19924;-41
2024/01/08 11:10:12;;;;;;;;;;;;;;;;;;5116948;28;19923;-44
2024/01/08 11:12:37;;;;;;;;;;;;;;;;;;5119000;28;19924;-41
2024/01/08 11:15:03;;;;;;;;;;;;;;;;;;5116626;28;20054;-43
2024/01/08 11:17:28;;;;;;;;;;;;;;;;;;5112164;28;20858;-42
2024/01/08 11:19:55;;;;;;;;;;;;;;;;;;5112227;27;19987;-43
2024/01/08 11:22:20;;;;;;;;;;;;;;;;;;5111474;27;19934;-43
2024/01/08 11:24:46;;;;;;;;;;;;;;;;;;5114512;28;20002;-43
2024/01/08 11:27:11;;;;;;;;;;;;;;;;;;5115404;27;19950;-42
2024/01/08 11:29:36;;;;;;;;;;;;;;;;;;5117104;28;19935;-43
2024/01/08 11:32:02;;;;;;;;;;;;;;;;;;5106179;28;20037;-43
2024/01/08 11:34:28;;;;;;;;;;;;;;;;;;5109525;28;20285;-43
2024/01/08 11:36:53;;;;;;;;;;;;;;;;;;5108724;27;19935;-41
2024/01/08 11:39:19;;;;;;;;;;;;;;;;;;5104715;27;19962;-40
2024/01/08 11:41:45;;;;;;;;;;;;;;;;;;5103800;27;19932;-39
2024/01/08 11:44:10;;;;;;;;;;;;;;;;;;5102743;28;20576;-42
2024/01/08 11:46:36;;;;;;;;;;;;;;;;;;5101432;28;19959;-43
2024/01/08 11:49:05;;;;;;;;;;;;;;;;;;5103745;28;20419;-42
2024/01/08 11:51:31;;;;;;;;;;;;;;;;;;5111666;28;19938;-41
2024/01/08 11:53:56;;;;;;;;;;;;;;;;;;5113035;28;20022;-42
2024/01/08 11:56:22;;;;;;;;;;;;;;;;;;5120297;28;19923;-42
2024/01/08 11:58:47;;;;;;;;;;;;;;;;;;5117272;28;19939;-42
2024/01/08 12:01:16;;;;;;;;;;;;;;;;;;5117004;28;19923;-41
2024/01/08 12:03:41;;;;;;;;;;;;;;;;;;5117524;28;20019;-42
2024/01/08 12:06:07;;;;;;;;;;;;;;;;;;5120009;28;19987;-41
2024/01/08 12:08:34;;;;;;;;;;;;;;;;;;5116477;27;20040;-43
2024/01/08 12:11:00;;;;;;;;;;;;;;;;;;5118078;27;20310;-42
2024/01/08 12:13:26;;;;;;;;;;;;;;;;;;5120386;28;20411;-42
2024/01/08 12:15:51;;;;;;;;;;;;;;;;;;5117118;27;19939;-44
2024/01/08 12:18:17;;;;;;;;;;;;;;;;;;5114141;28;19928;-41
2024/01/08 12:20:42;;;;;;;;;;;;;;;;;;5119952;28;19923;-43
2024/01/08 12:23:08;;;;;;;;;;;;;;;;;;5116350;27;19927;-42
2024/01/08 12:25:33;;;;;;;;;;;;;;;;;;5118620;28;20645;-42
2024/01/08 12:27:59;;;;;;;;;;;;;;;;;;5114273;28;19960;-45
2024/01/08 12:30:24;;;;;;;;;;;;;;;;;;5114993;28;20022;-43
2024/01/08 12:32:50;;;;;;;;;;;;;;;;;;5116748;27;19962;-41
2024/01/08 12:35:17;;;;;;;;;;;;;;;;;;5117624;28;20018;-41
2024/01/08 12:37:43;;;;;;;;;;;;;;;;;;5120047;28;20279;-43
2024/01/08 12:40:09;;;;;;;;;;;;;;;;;;5122685;28;19927;-44
2024/01/08 12:42:35;;;;;;;;;;;;;;;;;;5120342;28;20272;-43
2024/01/08 12:45:00;;;;;;;;;;;;;;;;;;5122993;28;19927;-42
2024/01/08 12:47:26;;;;;;;;;;;;;;;;;;5123650;28;20045;-43
2024/01/08 12:49:51;;;;;;;;;;;;;;;;;;5127294;27;19931;-43
2024/01/08 12:52:17;;;;;;;;;;;;;;;;;;5127062;28;20378;-42
2024/01/08 12:54:43;;;;;;;;;;;;;;;;;;5124274;28;20532;-41
2024/01/08 12:57:10;;;;;;;;;;;;;;;;;;5125542;28;19955;-42
2024/01/08 12:59:36;;;;;;;;;;;;;;;;;;5121780;28;19927;-45
2024/01/08 13:02:02;;;;;;;;;;;;;;;;;;5123397;28;19934;-42
2024/01/08 13:04:28;;;;;;;;;;;;;;;;;;5124297;28;19930;-42
2024/01/08 13:06:53;;;;;;;;;;;;;;;;;;5125856;28;19927;-45
2024/01/08 13:09:18;;;;;;;;;;;;;;;;;;5128279;28;19980;-43
2024/01/08 13:11:44;;;;;;;;;;;;;;;;;;5125026;28;20026;-43
2024/01/08 13:14:12;;;;;;;;;;;;;;;;;;5126671;28;19931;-43
2024/01/08 13:16:38;;;;;;;;;;;;;;;;;;5123046;28;19934;-46
2024/01/08 13:19:04;;;;;;;;;;;;;;;;;;5124389;28;19928;-43
2024/01/08 13:21:29;;;;;;;;;;;;;;;;;;5118945;28;19936;-43
2024/01/08 13:23:55;;;;;;;;;;;;;;;;;;5122771;27;20393;-44
2024/01/08 13:26:21;;;;;;;;;;;;;;;;;;5122571;28;19923;-45
2024/01/08 13:28:46;;;;;;;;;;;;;;;;;;5123956;28;20015;-41
2024/01/08 13:31:12;;;;;;;;;;;;;;;;;;5123909;28;19966;-42
2024/01/08 13:33:37;;;;;;;;;;;;;;;;;;5119649;28;19976;-41
2024/01/08 13:36:03;;;;;;;;;;;;;;;;;;5120839;28;20027;-45
2024/01/08 13:38:28;;;;;;;;;;;;;;;;;;5119474;28;19967;-43
2024/01/08 13:40:56;;;;;;;;;;;;;;;;;;5112479;28;20368;-40
2024/01/08 13:43:22;;;;;;;;;;;;;;;;;;5119305;27;20394;-45
2024/01/08 13:45:47;;;;;;;;;;;;;;;;;;5118656;27;19976;-47
2024/01/08 13:48:13;;;;;;;;;;;;;;;;;;5116752;28;20224;-42
2024/01/08 13:50:38;;;;;;;;;;;;;;;;;;5122121;28;20034;-41
2024/01/08 13:53:04;;;;;;;;;;;;;;;;;;5121756;27;20396;-46
2024/01/08 13:55:30;;;;;;;;;;;;;;;;;;5122188;28;19996;-43
2024/01/08 13:57:57;;;;;;;;;;;;;;;;;;5126318;28;21317;-45
2024/01/08 14:00:22;;;;;;;;;;;;;;;;;;5126936;28;20001;-44
2024/01/08 14:02:49;;;;;;;;;;;;;;;;;;5126637;28;20414;-42
2024/01/08 14:05:15;;;;;;;;;;;;;;;;;;5128587;28;19923;-42
2024/01/08 14:07:41;;;;;;;;;;;;;;;;;;5126553;28;20060;-42
2024/01/08 14:10:07;;;;;;;;;;;;;;;;;;5121738;28;19963;-42
2024/01/08 14:12:33;;;;;;;;;;;;;;;;;;5124764;28;19927;-42
2024/01/08 14:14:58;;;;;;;;;;;;;;;;;;5126097;28;20194;-41
2024/01/08 14:17:24;;;;;;;;;;;;;;;;;;5127056;28;19927;-42
2024/01/08 14:19:49;;;;;;;;;;;;;;;;;;5124226;28;20018;-42
2024/01/08 14:22:15;;;;;;;;;;;;;;;;;;5127212;28;20014;-41
2024/01/08 14:24:40;;;;;;;;;;;;;;;;;;5128416;28;19934;-43
2024/01/08 14:27:06;;;;;;;;;;;;;;;;;;5127693;28;20332;-42
2024/01/08 14:29:31;;;;;;;;;;;;;;;;;;5125904;28;19963;-42
2024/01/08 14:31:57;;;;;;;;;;;;;;;;;;5119388;28;20018;-42
2024/01/08 14:34:25;;;;;;;;;;;;;;;;;;5121857;27;19924;-41
2024/01/08 14:36:52;;;;;;;;;;;;;;;;;;5123053;27;19932;-44
2024/01/08 14:39:17;;;;;;;;;;;;;;;;;;5122208;28;20371;-41
2024/01/08 14:41:42;;;;;;;;;;;;;;;;;;5126035;28;20044;-42
2024/01/08 14:44:08;;;;;;;;;;;;;;;;;;5123801;28;20405;-43
2024/01/08 14:46:34;;;;;;;;;;;;;;;;;;5126741;28;19930;-43
2024/01/08 14:48:59;;;;;;;;;;;;;;;;;;5127512;28;19997;-44
2024/01/08 14:51:25;;;;;;;;;;;;;;;;;;5127263;28;20030;-41
2024/01/08 14:53:50;;;;;;;;;;;;;;;;;;5126119;28;19923;-41
2024/01/08 14:56:16;;;;;;;;;;;;;;;;;;5126785;27;19977;-42
2024/01/08 14:58:44;;;;;;;;;;;;;;;;;;5126539;28;19927;-42
2024/01/08 15:01:09;;;;;;;;;;;;;;;;;;5127224;28;19932;-43
2024/01/08 15:03:35;;;;;;;;;;;;;;;;;;5127140;28;19923;-42
2024/01/08 15:06:00;;;;;;;;;;;;;;;;;;5127458;28;20359;-41
2024/01/08 15:08:26;;;;;;;;;;;;;;;;;;5127962;28;20010;-41
2024/01/08 15:10:52;;;;;;;;;;;;;;;;;;5127806;28;20018;-41
2024/01/08 15:13:17;;;;;;;;;;;;;;;;;;5126094;28;20014;-42
2024/01/08 15:15:43;;;;;;;;;;;;;;;;;;5127510;28;20126;-43
2024/01/08 15:18:08;;;;;;;;;;;;;;;;;;5126580;28;20026;-42
2024/01/08 15:20:34;;;;;;;;;;;;;;;;;;5127691;28;19966;-42
2024/01/08 15:22:59;;;;;;;;;;;;;;;;;;5126647;28;20006;-43
2024/01/08 15:25:26;;;;;;;;;;;;;;;;;;5127681;28;19970;-44
2024/01/08 15:27:51;;;;;;;;;;;;;;;;;;5127554;28;20414;-41
2024/01/08 15:30:17;;;;;;;;;;;;;;;;;;5127659;28;19975;-41
2024/01/08 15:32:43;;;;;;;;;;;;;;;;;;5127379;28;20424;-40
2024/01/08 15:35:09;;;;;;;;;;;;;;;;;;5126924;28;20379;-41
2024/01/08 15:37:34;;;;;;;;;;;;;;;;;;5127593;28;19968;-43
2024/01/08 15:40:00;;;;;;;;;;;;;;;;;;5126404;28;19930;-42
2024/01/08 15:42:26;;;;;;;;;;;;;;;;;;5126249;28;19974;-44
2024/01/08 15:44:51;;;;;;;;;;;;;;;;;;5124364;28;20367;-41
2024/01/08 15:47:16;;;;;;;;;;;;;;;;;;5126548;28;20023;-42
2024/01/08 15:49:42;;;;;;;;;;;;;;;;;;5127351;28;19951;-42
2024/01/08 15:52:07;;;;;;;;;;;;;;;;;;5125661;28;20013;-42
2024/01/08 15:54:34;;;;;;;;;;;;;;;;;;5122561;28;19955;-41
2024/01/08 15:57:00;;;;;;;;;;;;;;;;;;5127333;28;20019;-42
2024/01/08 15:59:26;;;;;;;;;;;;;;;;;;5126626;28;19927;-42
2024/01/08 16:01:51;;;;;;;;;;;;;;;;;;5126472;28;20021;-40
2024/01/08 16:04:17;;;;;;;;;;;;;;;;;;5126316;28;20009;-41
2024/01/08 16:06:42;;;;;;;;;;;;;;;;;;5126270;28;20930;-41
2024/01/08 16:09:09;;;;;;;;;;;;;;;;;;5129744;27;19924;-41
2024/01/08 16:11:34;;;;;;;;;;;;;;;;;;5130236;28;19923;-41
2024/01/08 16:13:59;;;;;;;;;;;;;;;;;;5129701;28;20023;-44
2024/01/08 16:16:26;;;;;;;;;;;;;;;;;;5129933;28;20406;-42
2024/01/08 16:18:51;;;;;;;;;;;;;;;;;;5130327;28;20085;-41
2024/01/08 16:21:17;;;;;;;;;;;;;;;;;;5129946;28;20082;-40
2024/01/08 16:23:42;;;;;;;;;;;;;;;;;;5129866;28;19927;-42
2024/01/08 16:26:13;;;;;;;;;;;;;;;;;;5130759;28;19931;-41
2024/01/08 16:28:38;;;;;;;;;;;;;;;;;;5130423;28;19928;-41
2024/01/08 16:31:04;;;;;;;;;;;;;;;;;;5130417;28;19970;-41
2024/01/08 16:33:29;;;;;;;;;;;;;;;;;;5129606;28;20446;-42
2024/01/08 16:35:55;;;;;;;;;;;;;;;;;;5130639;28;19965;-43